Time;durP1;ratioP1;P1;durP2;ratioP2;P2;SDS_P1;SDS_P2;PMS_P1;PMS_P2;Temp;Humidity;BMP_temperature;BMP_pressure;BME280_temperature;BME280_humidity;BME280_pressure;Samples;Min_cycle;Max_cycle;Signal;HPM_P1;HPM_P2
2023/03/30 12:55:12;;;;;;;292.25;207.27;;;;;;;21.12;54.01;101009.59;5114914;27;20159;-48
2023/03/30 12:58:00;;;;;;;284.80;201.40;;;;;;;22.17;50.68;101008.59;5109741;28;20579;-53
2023/03/30 13:00:54;;;;;;;275.90;192.85;;;;;;;22.96;48.80;100997.06;5110122;28;20093;-53
2023/03/30 13:03:51;;;;;;;254.57;178.57;;;;;;;23.49;47.05;100996.25;5102212;28;20067;-55
2023/03/30 13:06:26;;;;;;;259.77;175.38;;;;;;;23.78;46.15;100974.84;5108897;28;20027;-49
2023/03/30 13:08:57;;;;;;;246.00;173.57;;;;;;;23.95;45.63;100977.69;5109446;28;20043;-52
2023/03/30 13:11:24;;;;;;;257.50;178.20;;;;;;;24.08;45.09;100976.16;5109328;28;20031;-49
2023/03/30 13:13:55;;;;;;;252.23;173.93;;;;;;;24.18;45.05;100971.91;5091537;28;20149;-52
2023/03/30 13:16:47;;;;;;;248.82;174.77;;;;;;;24.21;44.72;100964.06;5108508;28;20024;-49
2023/03/30 13:19:31;;;;;;;275.60;185.25;;;;;;;24.23;44.61;100961.47;5084784;28;20044;-49
2023/03/30 13:22:20;;;;;;;246.73;176.05;;;;;;;24.33;44.27;100960.69;5089696;28;20075;-49
2023/03/30 13:25:15;;;;;;;252.30;173.02;;;;;;;24.35;44.28;100952.88;5088210;28;20543;-55
2023/03/30 13:27:43;;;;;;;260.85;177.02;;;;;;;24.39;43.97;100947.66;5090348;28;20036;-49
2023/03/30 13:30:13;;;;;;;256.02;176.60;;;;;;;24.35;44.10;100955.47;5100322;28;20107;-49
2023/03/30 13:33:10;;;;;;;249.85;173.25;;;;;;;24.38;44.01;100945.91;5090131;28;20410;-50
2023/03/30 13:36:00;;;;;;;245.43;164.90;;;;;;;24.41;44.23;100934.56;5086161;28;20078;-49
2023/03/30 13:38:52;;;;;;;239.27;162.60;;;;;;;24.43;43.95;100928.50;5085638;28;20028;-50
2023/03/30 13:41:31;;;;;;;233.63;159.10;;;;;;;24.41;44.08;100918.81;5073168;28;20032;-50
2023/03/30 13:44:19;;;;;;;235.77;161.02;;;;;;;24.40;43.77;100915.34;5087718;28;20035;-49
2023/03/30 13:47:26;;;;;;;227.93;160.15;;;;;;;24.46;43.68;100906.66;5085718;28;20050;-49
2023/03/30 13:50:13;;;;;;;241.05;167.73;;;;;;;24.47;43.94;100903.16;5089057;28;20024;-55
2023/03/30 13:52:44;;;;;;;254.05;170.50;;;;;;;24.39;44.23;100903.09;5070922;28;20052;-49
2023/03/30 13:55:37;;;;;;;242.48;165.18;;;;;;;24.40;44.11;100897.00;5087737;28;20027;-55
2023/03/30 13:58:10;;;;;;;230.38;157.52;;;;;;;24.43;43.76;100899.66;5089421;28;20412;-49
2023/03/30 14:00:43;;;;;;;247.32;163.65;;;;;;;24.39;43.85;100891.75;5089278;28;20111;-49
2023/03/30 14:03:31;;;;;;;240.57;164.93;;;;;;;24.39;43.86;100889.13;5089117;28;20385;-54
2023/03/30 14:06:01;;;;;;;234.25;159.20;;;;;;;24.38;43.80;100882.13;5092834;28;20024;-56
2023/03/30 14:08:34;;;;;;;230.95;158.68;;;;;;;24.43;43.74;100873.44;5092112;28;20020;-51
2023/03/30 14:11:13;;;;;;;235.45;161.65;;;;;;;24.42;43.99;100865.53;5095065;28;20028;-48
2023/03/30 14:13:41;;;;;;;217.93;148.88;;;;;;;24.54;43.40;100864.78;5095186;28;20028;-49
2023/03/30 14:16:10;;;;;;;215.55;146.98;;;;;;;24.55;43.16;100863.91;5093066;28;20024;-53
2023/03/30 14:18:38;;;;;;;215.60;150.02;;;;;;;24.61;43.06;100860.44;5092041;28;20027;-47
2023/03/30 14:21:13;;;;;;;221.85;149.05;;;;;;;24.59;43.27;100844.72;5090985;28;20129;-52
2023/03/30 14:23:44;;;;;;;220.35;141.95;;;;;;;24.60;42.87;100845.56;5092916;28;20028;-52
2023/03/30 14:26:18;;;;;;;211.70;142.75;;;;;;;24.58;42.93;100822.84;5093434;28;20035;-53
2023/03/30 14:28:46;;;;;;;216.38;145.40;;;;;;;24.60;43.13;100819.34;5092586;28;20084;-55
2023/03/30 14:31:18;;;;;;;213.25;142.43;;;;;;;24.59;43.06;100821.09;5092837;28;20103;-52
2023/03/30 14:33:46;;;;;;;210.75;140.73;;;;;;;24.58;42.86;100816.72;5092922;28;20035;-53
2023/03/30 14:36:17;;;;;;;211.70;139.18;;;;;;;24.58;43.09;100804.47;5093730;28;20024;-48
2023/03/30 14:38:50;;;;;;;194.00;131.40;;;;;;;24.57;42.85;100789.59;5090794;28;20255;-54
2023/03/30 14:41:22;;;;;;;199.85;131.27;;;;;;;24.57;42.89;100791.38;5093774;28;20043;-49
2023/03/30 14:43:58;;;;;;;202.07;131.95;;;;;;;24.55;42.83;100800.97;5092467;28;20035;-53
2023/03/30 14:46:37;;;;;;;195.52;132.35;;;;;;;24.63;42.58;100786.19;5092190;28;20027;-55
2023/03/30 14:49:05;;;;;;;196.48;130.95;;;;;;;24.64;42.75;100789.66;5088274;28;20082;-50
2023/03/30 14:51:44;;;;;;;192.45;130.77;;;;;;;24.58;42.88;100798.38;5093944;28;20032;-52
2023/03/30 14:54:16;;;;;;;194.43;129.05;;;;;;;24.52;42.56;100796.59;5092547;28;20455;-52
2023/03/30 14:56:46;;;;;;;188.70;127.75;;;;;;;24.57;42.60;100813.22;5094224;28;20032;-53
2023/03/30 14:59:16;;;;;;;192.65;124.35;;;;;;;24.52;42.89;100801.81;5091150;28;20024;-51
2023/03/30 15:01:45;;;;;;;203.30;128.70;;;;;;;24.54;42.83;100788.72;5094143;28;20107;-53
2023/03/30 15:04:19;;;;;;;200.23;128.77;;;;;;;24.56;42.57;100790.50;5092736;28;20030;-50
2023/03/30 15:06:48;;;;;;;184.35;126.22;;;;;;;24.54;42.37;100805.34;5093409;28;20036;-51
2023/03/30 15:09:19;;;;;;;198.65;130.48;;;;;;;24.42;42.83;100792.09;5093704;28;20439;-52
2023/03/30 15:11:51;;;;;;;192.30;130.48;;;;;;;24.39;42.83;100795.59;5094332;28;20035;-52
2023/03/30 15:14:22;;;;;;;199.30;131.15;;;;;;;24.39;42.68;100792.97;5094285;28;20032;-52
2023/03/30 15:16:52;;;;;;;185.52;126.72;;;;;;;24.27;42.77;100751.78;5093593;28;20024;-51
2023/03/30 15:19:32;;;;;;;198.43;127.05;;;;;;;24.41;42.90;100772.00;5094472;28;20035;-48
2023/03/30 15:22:03;;;;;;;201.23;128.75;;;;;;;24.31;42.86;100757.06;5093364;28;20394;-51
2023/03/30 15:24:36;;;;;;;192.02;126.40;;;;;;;24.34;42.63;100744.84;5094524;28;20032;-49
2023/03/30 15:27:09;;;;;;;202.50;127.47;;;;;;;24.34;42.82;100741.38;5094686;28;20052;-52
2023/03/30 15:29:40;;;;;;;184.48;122.13;;;;;;;24.34;42.91;100734.38;5093180;28;20157;-52
2023/03/30 15:32:15;;;;;;;184.52;120.60;;;;;;;24.30;42.66;100740.47;5094315;28;20070;-48
2023/03/30 15:35:08;;;;;;;197.32;128.82;;;;;;;24.28;42.90;100752.69;5094366;28;20034;-52
2023/03/30 15:37:37;;;;;;;202.95;131.77;;;;;;;24.19;43.25;100763.97;5094404;28;20188;-51
2023/03/30 15:40:26;;;;;;;192.80;129.35;;;;;;;24.23;43.12;100759.63;5092840;28;20106;-52
2023/03/30 15:43:23;;;;;;;201.40;134.15;;;;;;;24.28;42.79;100734.34;5094347;28;20028;-49
2023/03/30 15:45:55;;;;;;;205.45;137.25;;;;;;;24.25;43.21;100731.69;5094090;28;20082;-51
2023/03/30 15:48:37;;;;;;;197.77;128.38;;;;;;;24.30;42.76;100721.22;5093039;28;20023;-49
2023/03/30 15:51:11;;;;;;;197.18;128.57;;;;;;;24.25;42.69;100714.19;5093896;28;20035;-51
2023/03/30 15:53:49;;;;;;;198.15;124.93;;;;;;;24.30;42.55;100702.88;5092457;28;20105;-50
2023/03/30 15:56:23;;;;;;;190.98;127.38;;;;;;;24.31;42.91;100696.78;5093854;28;20036;-52
2023/03/30 15:58:52;;;;;;;197.37;126.13;;;;;;;24.26;42.53;100691.50;5093656;28;20049;-49
2023/03/30 16:01:22;;;;;;;193.13;124.15;;;;;;;24.23;43.00;100686.25;5093911;28;20020;-48
2023/03/30 16:03:54;;;;;;;182.20;119.55;;;;;;;24.27;42.75;100667.06;5093789;28;20032;-52
2023/03/30 16:06:23;;;;;;;181.45;118.57;;;;;;;24.28;42.42;100655.69;5094049;28;20048;-48
2023/03/30 16:08:51;;;;;;;190.98;122.55;;;;;;;24.21;42.93;100638.16;5093714;28;20024;-51
2023/03/30 16:11:20;;;;;;;186.48;123.80;;;;;;;24.26;42.83;100631.22;5093136;28;20020;-53
2023/03/30 16:13:50;;;;;;;182.60;122.55;;;;;;;24.21;42.54;100625.06;5091972;28;20414;-48
2023/03/30 16:16:18;;;;;;;185.25;122.13;;;;;;;24.22;42.81;100645.16;5075147;28;20028;-50
2023/03/30 16:18:47;;;;;;;183.15;122.97;;;;;;;24.21;42.90;100667.00;5093328;28;20031;-48
2023/03/30 16:21:17;;;;;;;189.93;122.82;;;;;;;24.25;42.95;100687.13;5093501;28;20036;-48
2023/03/30 16:23:46;;;;;;;178.88;120.53;;;;;;;24.23;42.68;100678.38;5093595;28;20016;-48
2023/03/30 16:26:14;;;;;;;196.40;125.57;;;;;;;24.23;42.65;100678.38;5093844;28;20031;-49
2023/03/30 16:28:42;;;;;;;180.45;124.57;;;;;;;24.19;42.98;100681.81;5093281;28;20020;-53
2023/03/30 16:31:17;;;;;;;185.48;121.43;;;;;;;24.17;42.67;100671.34;5093545;28;20496;-50
2023/03/30 16:33:46;;;;;;;180.93;120.20;;;;;;;24.15;42.84;100649.50;5091984;28;20039;-48
2023/03/30 16:36:18;;;;;;;181.40;123.80;;;;;;;24.19;42.70;100642.50;5092718;28;20039;-48
2023/03/30 16:38:46;;;;;;;192.30;124.15;;;;;;;24.22;42.89;100634.69;5085956;28;20096;-49
2023/03/30 16:41:18;;;;;;;181.70;121.05;;;;;;;24.34;42.55;100637.38;5089833;28;20027;-49
2023/03/30 16:43:46;;;;;;;189.73;122.53;;;;;;;24.35;42.64;100633.88;5092573;28;20028;-52
2023/03/30 16:46:16;;;;;;;201.13;128.93;;;;;;;24.28;42.83;100632.09;5090188;28;20065;-50
2023/03/30 16:48:44;;;;;;;191.80;128.05;;;;;;;24.35;42.60;100635.66;5089367;28;20081;-49
2023/03/30 16:51:14;;;;;;;200.98;128.23;;;;;;;24.22;42.70;100629.44;5092445;28;20468;-49
2023/03/30 16:53:42;;;;;;;186.27;128.60;;;;;;;24.32;42.61;100630.38;5090830;28;20077;-49
2023/03/30 16:56:16;;;;;;;186.68;123.05;;;;;;;24.33;42.37;100619.03;5090904;28;20028;-52
2023/03/30 16:58:45;;;;;;;256.33;192.82;;;;;;;24.25;42.88;100590.16;5085464;28;20108;-49
2023/03/30 17:01:17;;;;;;;242.75;175.48;;;;;;;24.28;42.46;100575.31;5072819;28;20032;-50
2023/03/30 17:03:45;;;;;;;250.65;172.75;;;;;;;24.31;42.25;100570.94;5072666;28;20032;-49
2023/03/30 17:06:15;;;;;;;231.23;162.57;;;;;;;24.25;42.74;100556.06;5072825;28;20438;-49
2023/03/30 17:08:44;;;;;;;238.43;158.48;;;;;;;24.30;42.28;100546.50;5072598;28;20020;-49
2023/03/30 17:11:13;;;;;;;234.95;155.20;;;;;;;24.35;42.31;100546.50;5072286;28;20033;-48
2023/03/30 17:13:41;;;;;;;225.88;153.32;;;;;;;24.33;42.34;100533.38;5072741;28;20155;-48
2023/03/30 17:16:13;;;;;;;220.52;147.18;;;;;;;24.37;42.37;100519.41;5072265;28;20025;-54
2023/03/30 17:18:42;;;;;;;226.30;144.43;;;;;;;24.36;42.57;100516.81;5071415;28;20473;-52
2023/03/30 17:21:15;;;;;;;209.05;143.45;;;;;;;24.30;42.66;100499.31;5118997;22;20410;-48
2023/03/30 17:23:45;;;;;;;212.77;138.45;;;;;;;24.28;42.76;100485.31;5052565;28;20068;-48
2023/03/30 17:26:13;;;;;;;197.48;132.68;;;;;;;24.31;42.61;100469.59;5052626;28;20047;-48
2023/03/30 17:28:42;;;;;;;192.00;126.82;;;;;;;24.32;42.53;100453.00;5052469;28;20024;-49
2023/03/30 17:31:21;;;;;;;187.55;129.00;;;;;;;24.10;42.55;100412.72;5052225;28;20040;-48
2023/03/30 17:33:50;;;;;;;198.40;126.07;;;;;;;24.32;42.50;100446.88;5052491;28;20056;-48
2023/03/30 17:36:24;;;;;;;188.05;120.50;;;;;;;24.33;42.76;100435.53;5052163;28;20470;-48
2023/03/30 17:38:53;;;;;;;182.27;119.05;;;;;;;24.31;42.72;100421.53;5052328;28;20058;-53
2023/03/30 17:41:21;;;;;;;195.00;123.22;;;;;;;24.28;42.77;100427.66;5055824;28;20052;-49
2023/03/30 17:43:50;;;;;;;189.10;116.53;;;;;;;24.31;42.92;100432.03;5050127;28;20029;-49
2023/03/30 17:46:18;;;;;;;183.32;109.30;;;;;;;24.33;42.56;100411.94;5036755;28;20037;-50
2023/03/30 17:48:45;;;;;;;181.95;112.40;;;;;;;24.31;42.80;100411.94;5045437;28;20036;-51
2023/03/30 17:51:13;;;;;;;171.95;103.40;;;;;;;24.41;42.36;100411.09;5055203;28;20386;-50
2023/03/30 17:53:41;;;;;;;175.30;107.00;;;;;;;24.39;42.73;100397.09;5041004;28;20022;-50
2023/03/30 17:56:12;;;;;;;167.00;99.93;;;;;;;24.46;42.49;100402.34;5042266;28;20029;-52
2023/03/30 17:58:39;;;;;;;161.68;96.20;;;;;;;24.41;42.68;100389.22;5053499;28;20431;-50
2023/03/30 18:01:08;;;;;;;154.88;92.00;;;;;;;24.45;42.39;100374.41;5055271;28;20060;-51
2023/03/30 18:03:37;;;;;;;146.27;85.65;;;;;;;24.46;42.44;100376.16;5040495;28;20395;-49
2023/03/30 18:06:06;;;;;;;138.90;79.93;;;;;;;24.61;42.01;100364.78;5035069;28;20105;-51
2023/03/30 18:08:34;;;;;;;125.30;74.03;;;;;;;24.58;42.00;100347.31;5039357;28;20056;-50
2023/03/30 18:11:02;;;;;;;119.32;65.07;;;;;;;24.65;41.75;100340.31;5035351;28;20025;-49
2023/03/30 18:13:30;;;;;;;105.72;61.03;;;;;;;24.66;41.71;100315.84;5034630;28;20029;-50
2023/03/30 18:15:59;;;;;;;104.80;59.30;;;;;;;24.69;41.55;100314.06;5034968;28;20080;-50
2023/03/30 18:18:28;;;;;;;94.90;54.30;;;;;;;24.68;41.77;100312.31;5041941;28;20059;-50
2023/03/30 18:20:56;;;;;;;93.57;51.33;;;;;;;24.76;41.42;100308.88;5050604;28;20048;-49
2023/03/30 18:23:24;;;;;;;89.95;45.75;;;;;;;24.67;41.78;100299.22;5043470;28;20040;-50
2023/03/30 18:25:52;;;;;;;84.05;43.83;;;;;;;24.74;41.41;100295.75;5034818;28;20052;-50
2023/03/30 18:28:26;;;;;;;83.15;43.50;;;;;;;24.69;41.24;100290.47;5034537;28;20025;-52
2023/03/30 18:30:56;;;;;;;74.65;39.03;;;;;;;24.67;41.42;100281.72;5034453;28;20055;-51
2023/03/30 18:33:23;;;;;;;72.30;39.03;;;;;;;24.72;41.15;100280.03;5034245;28;20075;-49
2023/03/30 18:35:52;;;;;;;72.07;36.97;;;;;;;24.69;41.28;100264.25;5035183;28;20099;-49
2023/03/30 18:38:21;;;;;;;63.83;33.45;;;;;;;24.71;41.55;100256.44;5035221;28;20491;-49
2023/03/30 18:40:52;;;;;;;63.63;32.78;;;;;;;24.84;41.26;100255.53;5035245;28;20040;-48
2023/03/30 18:43:19;;;;;;;56.38;31.30;;;;;;;24.82;41.22;100240.69;5034794;28;20071;-51
2023/03/30 18:45:48;;;;;;;57.65;29.38;;;;;;;24.88;41.00;100235.41;5034720;28;20029;-50
2023/03/30 18:48:18;;;;;;;58.05;29.15;;;;;;;24.84;41.10;100218.81;5033840;28;20029;-48
2023/03/30 18:50:47;;;;;;;48.63;26.10;;;;;;;24.86;41.06;100213.53;5034777;28;20025;-49
2023/03/30 18:53:17;;;;;;;57.58;25.27;;;;;;;24.93;40.81;100204.78;5034832;28;20114;-49
2023/03/30 18:55:46;;;;;;;46.60;24.95;;;;;;;24.87;40.85;100186.44;5034645;28;20478;-49
2023/03/30 18:58:18;;;;;;;41.70;22.17;;;;;;;24.85;41.05;100180.31;5035019;28;20075;-51
2023/03/30 19:00:47;;;;;;;41.10;21.40;;;;;;;24.91;40.73;100177.69;5033586;28;20371;-49
2023/03/30 19:03:15;;;;;;;44.97;21.33;;;;;;;24.89;40.69;100155.81;5034394;28;20029;-50
2023/03/30 19:05:43;;;;;;;45.05;20.30;;;;;;;24.91;40.74;100154.06;5034216;28;20083;-48
2023/03/30 19:08:14;;;;;;;39.72;18.73;;;;;;;24.97;40.51;100132.16;5034678;28;20029;-49
2023/03/30 19:10:43;;;;;;;38.08;17.83;;;;;;;25.05;40.26;100108.53;5034515;28;20093;-49
2023/03/30 19:13:13;;;;;;;36.65;17.58;;;;;;;24.99;40.49;100120.78;5034151;28;20033;-49
2023/03/30 19:15:41;;;;;;;33.47;16.33;;;;;;;24.99;40.32;100098.94;5034688;28;20021;-51
2023/03/30 19:18:08;;;;;;;30.90;15.25;;;;;;;25.01;40.46;100110.28;5033214;28;20075;-51
2023/03/30 19:20:39;;;;;;;33.95;15.15;;;;;;;25.01;40.31;100098.03;5034280;28;20034;-52
2023/03/30 19:23:08;;;;;;;32.30;13.95;;;;;;;25.11;40.39;100109.34;5034049;28;20083;-53
2023/03/30 19:25:35;;;;;;;27.77;12.25;;;;;;;25.07;40.12;100097.13;5033356;28;20025;-53
2023/03/30 19:28:04;;;;;;;30.42;12.10;;;;;;;25.12;40.05;100116.34;5034317;28;20151;-51
2023/03/30 19:30:33;;;;;;;27.17;12.10;;;;;;;25.21;39.71;100127.69;5032937;28;20467;-50
2023/03/30 19:33:02;;;;;;;30.00;12.07;;;;;;;25.16;40.00;100132.94;5032633;28;20036;-50
2023/03/30 19:35:30;;;;;;;26.60;11.60;;;;;;;25.24;39.88;100151.28;5033997;28;20068;-51
2023/03/30 19:37:57;;;;;;;31.70;12.30;;;;;;;25.22;39.66;100143.44;5033915;28;20025;-49
2023/03/30 19:40:25;;;;;;;23.52;11.70;;;;;;;25.21;39.71;100146.94;5033518;28;20053;-55
